Latest Weather Observations for Rocky Gully South

IDW60801

Issued at 8:02 pm WST Sunday 30 August 2015 (issued every 30 minutes, with the page automatically refreshed every 10 minutes)

About weather observations | Map of weather stations | Latest weather observations for WA | Other Formats
Station Details ID: 009964 Name: ROCKY GULLY Lat: -34.57 Lon: 117.01 Height: 250.0 m
Data from the previous 72 hours. | See also: Recent months at Rocky Gully South
Date/Time
WST
Temp
°C
App
Temp
°C
Dew
Point
Rel
Hum
%
Delta-T
°C
Wind Press
QNH
hPa
Press
MSL
hPa
Rain
since 9 am
mm
Dir
 
Spd
km/h
Gust
km/h
Spd
kts
Gust
kts
30/08:00pm 9.2 7.5 4.0 70 2.3 WNW 2 6 1 3 - - 0.2
30/07:30pm 9.8 8.0 3.5 65 2.8 W 2 7 1 4 - - 0.2
30/07:00pm 10.1 7.4 3.6 64 2.9 W 7 9 4 5 - - 0.2
30/06:30pm 10.0 8.8 4.6 69 2.4 CALM 0 0 0 0 - - 0.2
30/06:00pm 10.7 9.5 4.6 66 2.8 CALM 0 2 0 1 - - 0.2
30/05:30pm 11.0 8.5 3.5 60 3.3 WSW 6 11 3 6 - - 0.2
30/05:00pm 12.0 7.9 2.2 51 4.3 WSW 13 20 7 11 - - 0.2
30/04:30pm 12.6 10.0 4.1 56 3.9 SW 7 11 4 6 - - 0.2
30/04:00pm 12.3 9.2 3.8 56 3.9 SW 9 17 5 9 - - 0.2
30/03:30pm 12.6 8.8 3.8 55 4.0 SW 13 24 7 13 - - 0.2
30/03:00pm 13.3 10.2 3.4 51 4.5 WSW 9 22 5 12 - - 0.2
30/02:30pm 13.3 9.7 5.0 57 3.9 SW 13 20 7 11 - - 0.2
30/02:00pm 13.1 8.8 3.2 51 4.5 WSW 15 20 8 11 - - 0.2
30/01:30pm 13.6 9.3 3.1 49 4.7 W 15 24 8 13 - - 0.2
30/01:00pm 13.8 9.9 3.6 50 4.7 W 13 20 7 11 - - 0.2
30/12:30pm 12.2 7.3 4.2 58 3.7 WSW 19 35 10 19 - - 0.2
30/12:00pm 13.0 10.3 7.2 68 2.9 SSW 11 17 6 9 - - 0.2
30/11:30am 12.6 9.3 4.3 57 3.8 WNW 11 20 6 11 - - 0.2
30/11:00am 10.8 8.2 6.2 73 2.2 W 9 17 5 9 - - 0.2
30/10:30am 12.3 8.2 4.5 59 3.6 W 15 26 8 14 - - 0.0
30/10:00am 12.3 8.4 5.5 63 3.2 WSW 15 22 8 12 - - 0.0
30/09:30am 11.9 8.4 5.5 65 3.0 W 13 24 7 13 - - 0.0
30/09:00am 11.1 7.6 5.4 68 2.7 WSW 13 22 7 12 - - 3.6
30/08:30am 10.3 7.8 6.5 77 1.8 W 9 15 5 8 - - 3.6
30/08:00am 9.4 7.1 7.3 87 1.0 W 9 15 5 8 - - 3.6
30/07:30am 8.3 6.3 6.9 91 0.7 WNW 7 13 4 7 - - 3.6
30/07:00am 7.9 5.7 6.4 90 0.7 WNW 7 11 4 6 - - 3.6
30/06:30am 8.2 6.3 6.5 89 0.8 NW 6 9 3 5 - - 3.6
30/06:00am 8.9 6.9 7.2 89 0.8 WNW 7 15 4 8 - - 3.6
30/05:30am 9.2 6.9 7.6 90 0.8 WNW 9 17 5 9 - - 3.6
30/05:00am 9.4 7.2 7.8 90 0.8 WNW 9 17 5 9 - - 3.6
30/04:30am 9.6 7.4 8.0 90 0.8 W 9 17 5 9 - - 3.6
30/04:00am 9.7 7.5 8.0 89 0.8 W 9 15 5 8 - - 3.6
30/03:30am 10.1 7.3 8.5 90 0.8 W 13 28 7 15 - - 3.6
30/03:00am 10.0 7.5 8.3 89 0.8 WNW 11 19 6 10 - - 3.6
30/02:30am 10.8 8.2 9.2 90 0.8 WNW 13 24 7 13 - - 3.4
30/02:00am 10.5 8.2 9.1 91 0.7 NW 11 19 6 10 - - 3.4
30/01:30am 10.6 8.4 9.2 91 0.7 NW 11 20 6 11 - - 3.4
30/01:00am 11.1 9.0 9.7 91 0.7 NW 11 17 6 9 - - 3.4
30/12:30am 11.5 9.1 10.1 91 0.7 NW 13 22 7 12 - - 3.4
30/12:00am 11.7 10.2 10.4 92 0.7 NW 9 13 5 7 - - 3.0
 
Date/Time
WST
Temp
°C
App
Temp
°C
Dew
Point
Rel
Hum
%
Delta-T
°C
Wind Press
QNH
hPa
Press
MSL
hPa
Rain
since 9 am
mm
Dir
 
Spd
km/h
Gust
km/h
Spd
kts
Gust
kts
29/11:30pm 11.6 10.0 10.3 92 0.7 NNW 9 15 5 8 - - 3.0
29/11:00pm 11.7 10.2 10.4 92 0.7 NNW 9 15 5 8 - - 3.0
29/10:30pm 11.6 9.6 10.3 92 0.7 N 11 17 6 9 - - 3.0
29/10:00pm 11.5 9.5 10.1 91 0.7 NNW 11 15 6 8 - - 3.0
29/09:30pm 11.5 9.4 9.9 90 0.8 NW 11 19 6 10 - - 2.8
29/09:00pm 11.8 9.9 10.4 91 0.7 NNW 11 17 6 9 - - 2.8
29/08:30pm 12.1 10.6 10.5 90 0.8 NNW 9 15 5 8 - - 2.6
29/08:00pm 12.2 10.7 10.6 90 0.8 NW 9 13 5 7 - - 2.4
29/07:30pm 12.5 10.3 10.7 89 0.9 WNW 13 24 7 13 - - 2.0
29/07:00pm 12.9 12.0 10.8 87 1.1 NW 6 7 3 4 - - 1.4
29/06:30pm 13.0 12.1 10.7 86 1.2 WNW 6 7 3 4 - - 1.4
29/06:00pm 13.2 12.1 10.6 84 1.4 W 7 11 4 6 - - 1.4
29/05:30pm 13.4 12.0 10.8 84 1.4 W 9 17 5 9 - - 1.4
29/05:00pm 14.0 12.1 11.7 86 1.2 W 13 24 7 13 - - 1.4
29/04:30pm 15.1 13.7 12.1 82 1.7 W 11 22 6 12 - - 1.2
29/04:00pm 15.3 13.0 11.7 79 2.0 W 15 28 8 15 - - 1.0
29/03:30pm 16.3 14.0 13.0 81 1.9 WNW 17 39 9 21 - - 1.0
29/03:14pm 15.7 11.3 13.0 84 1.5 NNW 28 48 15 26 - - 1.0
29/03:00pm 15.6 13.7 13.1 85 1.4 N 15 43 8 23 - - 0.6
29/02:30pm 16.0 13.6 12.6 80 1.9 N 17 28 9 15 - - 0.0
29/02:00pm 16.6 14.2 12.8 78 2.1 N 17 33 9 18 - - 0.0
29/01:30pm 16.6 13.8 12.6 77 2.2 N 19 28 10 15 - - 0.0
29/01:00pm 17.2 14.6 12.1 72 2.8 N 17 33 9 18 - - 0.0
29/12:30pm 17.2 14.1 12.3 73 2.7 N 20 33 11 18 - - 0.0
29/12:00pm 17.1 15.1 12.6 75 2.5 N 15 24 8 13 - - 0.0
29/11:30am 16.6 14.1 12.2 75 2.4 N 17 26 9 14 - - 0.0
29/11:00am 16.3 13.4 12.3 77 2.2 N 19 30 10 16 - - 0.0
29/10:30am 15.3 12.2 11.7 79 2.0 N 19 33 10 18 - - 0.0
29/10:00am 15.5 12.4 11.7 78 2.1 N 19 33 10 18 - - 0.0
29/09:30am 15.1 12.5 12.1 82 1.7 N 17 32 9 17 - - 0.0
29/09:00am 14.0 11.3 11.7 86 1.2 N 17 28 9 15 - - 0.0
29/08:30am 13.5 11.6 11.9 90 0.9 N 13 22 7 12 - - 0.0
29/08:00am 12.8 10.0 11.4 91 0.7 N 17 26 9 14 - - 0.0
29/07:30am 12.1 10.0 11.0 93 0.6 N 13 20 7 11 - - 0.0
29/07:00am 11.8 9.2 10.7 93 0.6 N 15 24 8 13 - - 0.0
29/06:30am 11.3 8.9 10.2 93 0.6 N 13 22 7 12 - - 0.0
29/06:00am 11.3 9.3 10.0 92 0.7 N 11 17 6 9 - - 0.0
29/05:30am 11.0 9.3 9.8 92 0.6 N 9 17 5 9 - - 0.0
29/05:00am 10.5 9.0 9.3 92 0.6 N 7 15 4 8 - - 0.0
29/04:30am 10.0 8.0 8.8 92 0.6 N 9 13 5 7 - - 0.0
29/04:00am 9.1 7.4 7.7 91 0.7 N 6 9 3 5 - - 0.0
29/03:30am 8.9 7.5 7.4 90 0.7 NNE 4 7 2 4 - - 0.0
29/03:00am 9.0 7.1 7.5 90 0.7 N 7 11 4 6 - - 0.0
29/02:30am 8.8 7.0 7.3 90 0.7 N 6 9 3 5 - - 0.0
29/02:00am 8.6 6.7 6.9 89 0.8 N 6 9 3 5 - - 0.0
29/01:30am 8.5 6.6 6.8 89 0.8 N 6 9 3 5 - - 0.0
29/01:00am 8.1 5.9 6.2 88 0.9 N 7 9 4 5 - - 0.0
29/12:30am 7.8 5.7 5.6 86 1.0 N 6 7 3 4 - - 0.0
29/12:00am 9.0 7.0 7.0 87 0.9 NNE 7 9 4 5 - - 0.0
 
Date/Time
WST
Temp
°C
App
Temp
°C
Dew
Point
Rel
Hum
%
Delta-T
°C
Wind Press
QNH
hPa
Press
MSL
hPa
Rain
since 9 am
mm
Dir
 
Spd
km/h
Gust
km/h
Spd
kts
Gust
kts
28/11:30pm 8.5 6.6 6.5 87 0.9 N 6 7 3 4 - - 0.0
28/11:00pm 8.4 6.4 6.2 86 1.0 N 6 7 3 4 - - 0.0
28/10:30pm 8.8 6.8 6.4 85 1.1 NNW 6 7 3 4 - - 0.0
28/10:00pm 9.0 7.0 6.1 82 1.3 N 6 7 3 4 - - 0.0
28/09:30pm 9.8 7.9 6.9 82 1.4 NNW 6 7 3 4 - - 0.0
28/09:00pm 10.0 7.9 6.5 79 1.7 NNW 7 9 4 5 - - 0.0
28/08:30pm 11.0 10.3 6.9 76 2.0 CALM 0 0 0 0 - - 0.0
28/08:00pm 11.0 10.2 6.7 75 2.1 CALM 0 0 0 0 - - 0.0
28/07:30pm 11.8 9.9 6.5 70 2.5 N 6 7 3 4 - - 0.0
28/07:00pm 13.0 11.1 6.6 65 3.1 N 6 9 3 5 - - 0.0
28/06:30pm 14.8 12.7 6.6 58 4.0 N 7 15 4 8 - - 0.0
28/06:00pm 16.1 13.1 6.0 51 5.0 NNW 11 17 6 9 - - 0.0
28/05:30pm 17.1 13.7 5.7 47 5.6 NW 13 20 7 11 - - 0.0
28/05:00pm 18.3 14.9 5.8 44 6.2 NW 13 22 7 12 - - 0.0
28/04:30pm 19.0 15.4 6.8 45 6.2 NW 15 28 8 15 - - 0.0
28/04:00pm 19.5 17.3 9.4 52 5.4 NNW 11 19 6 10 - - 0.0
28/03:30pm 19.7 16.3 9.0 50 5.7 NW 17 30 9 16 - - 0.0
28/03:00pm 19.7 17.2 9.6 52 5.4 NW 13 24 7 13 - - 0.0
28/02:30pm 18.8 15.4 9.3 54 5.1 NNW 17 28 9 15 - - 0.0
28/02:00pm 18.6 15.1 8.8 53 5.2 NW 17 33 9 18 - - 0.0
28/01:30pm 18.2 16.4 10.8 62 4.0 NW 11 19 6 10 - - 0.0
28/01:00pm 18.5 16.2 11.6 64 3.8 NNW 15 22 8 12 - - 0.0
28/12:30pm 17.6 15.4 10.7 64 3.7 NNW 13 20 7 11 - - 0.0
28/12:00pm 17.6 15.3 11.6 68 3.3 N 15 22 8 12 - - 0.0
28/11:30am 17.0 15.1 11.9 72 2.8 NNW 13 17 7 9 - - 0.0
28/11:00am 16.8 14.8 11.5 71 2.9 NNW 13 22 7 12 - - 0.0
28/10:30am 16.7 13.8 11.0 69 3.1 NNW 17 30 9 16 - - 0.0
28/10:00am 16.8 14.4 11.3 70 3.0 NNW 15 30 8 16 - - 0.0
28/09:30am 15.8 13.7 11.2 74 2.5 NNW 13 20 7 11 - - 0.0
28/09:00am 14.3 11.9 9.9 75 2.3 NNW 13 22 7 12 - - 0.0
28/08:30am 13.0 10.6 8.5 74 2.3 N 11 20 6 11 - - 0.0
28/08:00am 11.5 8.7 6.8 73 2.3 N 11 19 6 10 - - 0.0
28/07:30am 10.4 7.0 5.8 73 2.2 N 13 20 7 11 - - 0.0
28/07:00am 10.0 6.8 5.0 71 2.3 N 11 19 6 10 - - 0.0
28/06:30am 10.2 6.9 4.6 68 2.5 N 11 20 6 11 - - 0.0
28/06:00am 10.5 6.8 4.2 65 2.8 N 13 20 7 11 - - 0.0
28/05:30am 10.8 7.4 4.0 63 3.1 N 11 20 6 11 - - 0.0
28/05:00am 10.8 7.4 3.8 62 3.1 N 11 17 6 9 - - 0.0
28/04:30am 11.1 7.6 3.4 59 3.4 N 11 20 6 11 - - 0.0
28/04:00am 11.5 7.6 3.5 58 3.6 N 13 19 7 10 - - 0.0
28/03:30am 11.5 8.1 3.8 59 3.5 N 11 20 6 11 - - 0.0
28/03:00am 11.9 8.2 4.2 59 3.5 NNE 13 20 7 11 - - 0.0
28/02:30am 12.5 8.3 4.0 56 3.9 N 15 26 8 14 - - 0.0
28/02:00am 13.0 9.3 4.2 55 4.1 N 13 22 7 12 - - 0.0
28/01:30am 13.4 9.7 4.3 54 4.2 NNE 13 19 7 10 - - 0.0
28/01:00am 13.6 10.3 4.5 54 4.2 NNE 11 20 6 11 - - 0.0
28/12:30am 13.7 10.1 4.8 55 4.2 NNE 13 20 7 11 - - 0.0
28/12:00am 13.8 10.1 4.7 54 4.3 NNE 13 19 7 10 - - 0.0
 
Date/Time
WST
Temp
°C
App
Temp
°C
Dew
Point
Rel
Hum
%
Delta-T
°C
Wind Press
QNH
hPa
Press
MSL
hPa
Rain
since 9 am
mm
Dir
 
Spd
km/h
Gust
km/h
Spd
kts
Gust
kts
27/11:30pm 13.9 10.6 4.8 54 4.3 NNE 11 20 6 11 - - 0.0
27/11:00pm 14.7 11.0 4.7 51 4.7 NNE 13 24 7 13 - - 0.0
27/10:30pm 14.8 10.8 4.8 51 4.7 NNE 15 22 8 12 - - 0.0
27/10:00pm 14.8 11.5 4.8 51 4.7 NE 11 19 6 10 - - 0.0
27/09:30pm 15.1 11.9 5.0 51 4.8 NNE 11 19 6 10 - - 0.0
27/09:00pm 15.2 12.5 5.7 53 4.6 NNE 9 19 5 10 - - 0.0
27/08:30pm 15.4 12.8 5.9 53 4.6 NNE 9 15 5 8 - - 0.0

Other Formats:

Comma delimited format used in spreadsheet applications
http://www.bom.gov.au/fwo/IDW60801/IDW60801.94631.axf

JavaScript Object Notation format (JSON) in row-major order
http://www.bom.gov.au/fwo/IDW60801/IDW60801.94631.json